createdAt,value
2023-05-01T00:02:24.364Z,10.02
2023-05-01T00:04:52.336Z,10.30
2023-05-01T00:07:20.890Z,9.98
2023-05-01T00:09:48.823Z,10.75
2023-05-01T00:12:16.712Z,10.73
2023-05-01T00:14:46.109Z,11.63
2023-05-01T00:17:14.112Z,11.00
2023-05-01T00:19:42.039Z,11.20
2023-05-01T00:22:09.985Z,13.43
2023-05-01T00:24:38.028Z,13.82
2023-05-01T00:27:06.265Z,14.90
2023-05-01T00:29:34.136Z,14.15
2023-05-01T00:32:05.635Z,13.55
2023-05-01T00:34:33.703Z,13.52
2023-05-01T00:37:01.604Z,13.88
2023-05-01T00:39:29.539Z,15.10
2023-05-01T00:41:57.629Z,14.43
2023-05-01T00:44:25.806Z,14.95
2023-05-01T00:46:54.834Z,15.25
2023-05-01T00:49:24.147Z,16.75
2023-05-01T00:51:54.312Z,17.25
2023-05-01T00:54:23.177Z,17.80
2023-05-01T00:56:52.219Z,16.98
2023-05-01T00:59:20.194Z,16.42
2023-05-01T01:01:48.237Z,16.33
2023-05-01T01:04:16.181Z,17.38
2023-05-01T01:06:53.451Z,16.38
2023-05-01T01:09:33.613Z,16.48
2023-05-01T01:12:10.809Z,14.32
2023-05-01T01:14:47.563Z,15.32
2023-05-01T01:17:21.760Z,14.95
2023-05-01T01:20:32.382Z,15.90
2023-05-01T01:23:25.422Z,15.93
2023-05-01T01:26:12.493Z,15.20
2023-05-01T01:28:57.032Z,16.17
2023-05-01T01:31:33.951Z,15.73
2023-05-01T01:34:14.500Z,15.68
2023-05-01T01:36:47.910Z,15.82
2023-05-01T01:39:30.138Z,15.20
2023-05-01T01:41:59.929Z,15.10
2023-05-01T01:44:34.743Z,13.65
2023-05-01T01:47:06.125Z,14.60
2023-05-01T01:49:41.620Z,13.88
2023-05-01T01:52:11.733Z,16.00
2023-05-01T01:54:44.863Z,17.05
2023-05-01T01:57:15.914Z,17.55
2023-05-01T01:59:47.292Z,17.23
2023-05-01T02:02:16.641Z,17.55
2023-05-01T02:04:46.895Z,18.20
2023-05-01T02:07:16.039Z,16.83
2023-05-01T02:09:47.090Z,16.88
2023-05-01T02:12:17.852Z,16.95
2023-05-01T02:14:47.238Z,17.80
2023-05-01T02:17:16.923Z,19.10
2023-05-01T02:19:48.645Z,17.42
2023-05-01T02:22:18.452Z,16.45
2023-05-01T02:24:48.368Z,15.45
2023-05-01T02:27:21.155Z,16.67
2023-05-01T02:29:51.993Z,15.60
2023-05-01T02:32:20.053Z,13.20
2023-05-01T02:34:49.569Z,13.60
2023-05-01T02:37:18.145Z,11.85
2023-05-01T02:39:47.399Z,12.05
2023-05-01T02:42:17.734Z,11.27
2023-05-01T02:44:51.910Z,10.57
2023-05-01T02:47:23.902Z,10.13
2023-05-01T02:49:55.528Z,9.75
2023-05-01T02:52:24.074Z,8.27
2023-05-01T02:55:03.549Z,9.60
2023-05-01T02:57:33.384Z,8.48
2023-05-01T03:00:01.409Z,9.63
2023-05-01T03:02:29.369Z,9.20
2023-05-01T03:04:58.792Z,10.57
2023-05-01T03:07:31.436Z,10.82
2023-05-01T03:09:59.376Z,10.65
2023-05-01T03:12:27.344Z,9.90
2023-05-01T03:14:55.290Z,11.30
2023-05-01T03:17:23.447Z,10.98
2023-05-01T03:19:51.669Z,9.63
2023-05-01T03:22:21.016Z,9.07
2023-05-01T03:24:49.846Z,10.18
2023-05-01T03:27:17.779Z,11.50
2023-05-01T03:29:45.702Z,10.77
2023-05-01T03:32:13.798Z,9.98
2023-05-01T03:34:41.849Z,9.82
2023-05-01T03:37:10.035Z,10.52
2023-05-01T03:39:39.583Z,10.35
2023-05-01T03:42:26.286Z,10.07
2023-05-01T03:45:01.174Z,10.05
2023-05-01T03:47:30.369Z,10.07
2023-05-01T03:49:58.882Z,10.30
2023-05-01T03:52:27.736Z,11.25
2023-05-01T03:54:58.484Z,9.63
2023-05-01T03:57:41.262Z,7.03
2023-05-01T04:00:11.846Z,6.85
2023-05-01T04:02:48.599Z,7.70
2023-05-01T04:05:22.189Z,9.32
2023-05-01T04:07:58.002Z,9.07
2023-05-01T04:10:28.371Z,8.13
2023-05-01T04:13:04.963Z,7.22
2023-05-01T04:15:32.895Z,7.28
2023-05-01T04:18:01.694Z,5.85
2023-05-01T04:20:29.896Z,5.10
2023-05-01T04:22:57.932Z,4.70
2023-05-01T04:25:25.899Z,4.95
2023-05-01T04:27:59.737Z,4.68
2023-05-01T04:30:27.764Z,4.90
2023-05-01T04:32:55.868Z,4.53
2023-05-01T04:35:23.943Z,4.65
2023-05-01T04:37:51.911Z,5.13
2023-05-01T04:40:19.905Z,4.72
2023-05-01T04:42:47.965Z,4.13
2023-05-01T04:45:17.745Z,4.30
2023-05-01T04:47:45.853Z,5.00
2023-05-01T04:50:14.431Z,5.50
2023-05-01T04:52:42.453Z,5.93
2023-05-01T04:55:11.530Z,6.03
2023-05-01T04:57:47.952Z,6.00
2023-05-01T05:00:19.144Z,5.90
2023-05-01T05:02:54.397Z,5.85
2023-05-01T05:05:22.654Z,6.65
2023-05-01T05:07:51.327Z,6.43
2023-05-01T05:10:59.021Z,7.28
2023-05-01T05:13:31.086Z,7.03
2023-05-01T05:16:03.725Z,5.97
2023-05-01T05:18:32.487Z,6.40
2023-05-01T05:21:05.054Z,6.20
2023-05-01T05:23:33.657Z,6.45
2023-05-01T05:26:02.315Z,5.85
2023-05-01T05:28:30.639Z,6.13
2023-05-01T05:30:59.312Z,6.22
2023-05-01T05:33:29.253Z,6.65
2023-05-01T05:35:59.685Z,6.07
2023-05-01T05:38:32.978Z,6.07
2023-05-01T05:41:01.965Z,6.03
2023-05-01T05:43:32.366Z,5.90
2023-05-01T05:46:01.295Z,6.85
2023-05-01T05:48:32.142Z,6.72
2023-05-01T05:51:00.280Z,6.25
2023-05-01T05:53:28.245Z,6.47
2023-05-01T05:55:56.287Z,7.53
2023-05-01T05:58:24.735Z,6.57
2023-05-01T06:00:55.711Z,7.13
2023-05-01T06:03:24.255Z,6.60
2023-05-01T06:05:56.328Z,6.53
2023-05-01T06:08:24.405Z,7.47
2023-05-01T06:10:52.465Z,8.68
2023-05-01T06:13:20.634Z,9.90
2023-05-01T06:15:50.783Z,11.07
2023-05-01T06:18:18.922Z,7.68
2023-05-01T06:20:47.861Z,3.38
2023-05-01T06:23:17.188Z,3.85
2023-05-01T06:25:58.938Z,4.55
2023-05-01T06:28:26.893Z,4.35
2023-05-01T06:30:56.000Z,3.95
2023-05-01T06:33:25.847Z,4.25
2023-05-01T06:36:04.649Z,4.53
2023-05-01T06:38:34.389Z,4.22
2023-05-01T06:41:02.320Z,5.65
2023-05-01T06:43:31.178Z,5.43
2023-05-01T06:45:59.256Z,5.03
2023-05-01T06:48:27.247Z,4.40
2023-05-01T06:50:56.587Z,5.00
2023-05-01T06:53:24.634Z,4.75
2023-05-01T06:55:53.909Z,4.55
2023-05-01T06:58:24.147Z,4.55
2023-05-01T07:00:53.861Z,4.65
2023-05-01T07:03:22.249Z,4.57
2023-05-01T07:05:50.199Z,3.90
2023-05-01T07:08:18.346Z,4.03
2023-05-01T07:10:46.354Z,4.15
2023-05-01T07:13:15.958Z,4.00
2023-05-01T07:15:43.930Z,4.47
2023-05-01T07:18:13.405Z,4.22
2023-05-01T07:20:41.349Z,3.90
2023-05-01T07:23:09.841Z,4.75
2023-05-01T07:25:38.712Z,3.55
2023-05-01T07:28:08.123Z,3.72
2023-05-01T07:30:38.466Z,2.92
2023-05-01T07:33:06.900Z,2.13
2023-05-01T07:35:34.912Z,1.85
2023-05-01T07:38:02.853Z,1.60
2023-05-01T07:40:31.094Z,1.27
2023-05-01T07:42:58.993Z,1.10
2023-05-01T07:45:27.065Z,1.48
2023-05-01T07:47:57.127Z,1.38
2023-05-01T07:50:26.413Z,1.00
2023-05-01T07:52:54.330Z,1.20
2023-05-01T07:55:23.305Z,1.20
2023-05-01T07:57:51.270Z,1.13
2023-05-01T08:00:19.772Z,0.93
2023-05-01T08:02:48.468Z,1.30
2023-05-01T08:05:17.834Z,1.05
2023-05-01T08:07:46.324Z,0.90
2023-05-01T08:10:15.030Z,1.17
2023-05-01T08:12:43.049Z,1.20
2023-05-01T08:15:11.239Z,0.90
2023-05-01T08:17:39.344Z,1.48
2023-05-01T08:20:08.946Z,2.83
2023-05-01T08:22:38.216Z,2.92
2023-05-01T08:25:07.167Z,2.53
2023-05-01T08:27:35.249Z,2.55
2023-05-01T08:30:03.260Z,2.53
2023-05-01T08:32:31.273Z,1.88
2023-05-01T08:34:59.228Z,2.45
2023-05-01T08:37:27.148Z,1.65
2023-05-01T08:39:56.912Z,1.58
2023-05-01T08:42:25.690Z,1.13
2023-05-01T08:44:58.891Z,1.10
2023-05-01T08:47:27.721Z,1.10
2023-05-01T08:49:56.839Z,1.30
2023-05-01T08:52:27.725Z,1.30
2023-05-01T08:54:58.612Z,1.15
2023-05-01T08:57:28.405Z,1.10
2023-05-01T08:59:58.777Z,1.67
2023-05-01T09:02:27.771Z,1.20
2023-05-01T09:04:56.302Z,1.35
2023-05-01T09:07:24.330Z,1.10
2023-05-01T09:09:52.243Z,1.08
2023-05-01T09:12:24.328Z,1.15
2023-05-01T09:14:53.302Z,1.27
2023-05-01T09:17:22.860Z,1.00
2023-05-01T09:19:51.900Z,0.90
2023-05-01T09:22:20.388Z,0.90
2023-05-01T09:24:48.295Z,0.90
2023-05-01T09:27:16.665Z,1.10
2023-05-01T09:29:47.455Z,1.23
2023-05-01T09:32:17.757Z,1.15
2023-05-01T09:34:45.900Z,0.93
2023-05-01T09:37:15.798Z,1.30
2023-05-01T09:39:43.739Z,1.00
2023-05-01T09:42:11.920Z,1.20
2023-05-01T09:44:45.231Z,1.20
2023-05-01T09:47:15.915Z,1.30
2023-05-01T09:49:48.804Z,1.00
2023-05-01T09:52:17.256Z,1.10
2023-05-01T09:54:45.178Z,0.98
2023-05-01T09:57:13.778Z,0.80
2023-05-01T09:59:41.729Z,0.90
2023-05-01T10:02:30.978Z,0.75
2023-05-01T10:04:59.989Z,0.93
2023-05-01T10:07:28.034Z,0.90
2023-05-01T10:09:58.511Z,1.00
2023-05-01T10:12:29.204Z,1.00
2023-05-01T10:15:03.423Z,1.02
2023-05-01T10:17:37.391Z,1.20
2023-05-01T10:20:06.115Z,1.50
2023-05-01T10:22:34.258Z,1.88
2023-05-01T10:25:02.498Z,1.75
2023-05-01T10:27:30.706Z,2.40
2023-05-01T10:29:59.371Z,2.20
2023-05-01T10:32:27.417Z,1.50
2023-05-01T10:35:01.537Z,1.17
2023-05-01T10:37:35.927Z,1.20
2023-05-01T10:40:37.032Z,1.50
2023-05-01T10:43:15.926Z,0.75
2023-05-01T10:45:44.719Z,0.98
2023-05-01T10:48:12.811Z,0.70
2023-05-01T10:51:13.558Z,0.77
2023-05-01T10:53:44.400Z,1.30
2023-05-01T10:56:43.466Z,1.20
2023-05-01T10:59:13.019Z,0.68
2023-05-01T11:01:42.247Z,0.90
2023-05-01T11:04:51.514Z,0.70
2023-05-01T11:07:20.819Z,0.90
2023-05-01T11:09:54.854Z,0.70
2023-05-01T11:12:52.200Z,0.90
2023-05-01T11:15:31.055Z,0.70
2023-05-01T11:18:00.234Z,0.73
2023-05-01T11:21:02.660Z,0.70
2023-05-01T11:23:30.802Z,0.60
2023-05-01T11:26:07.495Z,1.02
2023-05-01T11:28:35.552Z,1.65
2023-05-01T11:31:03.749Z,2.25
2023-05-01T11:33:32.098Z,0.70
2023-05-01T11:36:04.396Z,0.77
2023-05-01T11:38:32.403Z,0.80
2023-05-01T11:41:02.178Z,0.75
2023-05-01T11:43:31.970Z,0.98
2023-05-01T11:46:05.795Z,1.90
2023-05-01T11:48:33.845Z,1.02
2023-05-01T11:51:01.748Z,0.95
2023-05-01T11:53:30.378Z,0.90
2023-05-01T11:55:59.669Z,1.00
2023-05-01T11:58:36.600Z,1.90
2023-05-01T12:01:04.969Z,1.05
2023-05-01T12:03:43.224Z,0.90
2023-05-01T12:06:13.127Z,0.80
2023-05-01T12:08:45.392Z,0.95
2023-05-01T12:11:13.562Z,1.02
2023-05-01T12:13:43.914Z,1.20
2023-05-01T12:16:11.954Z,1.20
2023-05-01T12:18:40.055Z,1.30
2023-05-01T12:21:17.114Z,1.20
2023-05-01T12:23:45.044Z,1.58
2023-05-01T12:26:20.551Z,1.23
2023-05-01T12:29:00.129Z,1.38
2023-05-01T12:31:29.296Z,1.35
2023-05-01T12:33:59.083Z,1.25
2023-05-01T12:36:28.961Z,1.20
2023-05-01T12:39:00.676Z,1.50
2023-05-01T12:41:37.349Z,6.15
2023-05-01T12:44:18.995Z,1.20
2023-05-01T12:46:54.005Z,1.00
2023-05-01T12:49:23.020Z,0.90
2023-05-01T12:51:53.197Z,1.02
2023-05-01T12:54:22.597Z,1.80
2023-05-01T12:56:50.874Z,4.35
2023-05-01T12:59:25.131Z,3.67
2023-05-01T13:02:00.507Z,2.10
2023-05-01T13:04:29.527Z,1.55
2023-05-01T13:06:58.639Z,2.08
2023-05-01T13:09:28.546Z,1.48
2023-05-01T13:12:01.883Z,1.50
2023-05-01T13:14:37.249Z,1.27
2023-05-01T13:17:06.720Z,1.33
2023-05-01T13:19:37.274Z,1.90
2023-05-01T13:22:06.360Z,1.30
2023-05-01T13:24:39.583Z,2.40
2023-05-01T13:27:09.069Z,1.20
2023-05-01T13:29:39.641Z,1.10
2023-05-01T13:32:12.118Z,1.15
2023-05-01T13:34:43.808Z,1.58
2023-05-01T13:37:13.698Z,1.40
2023-05-01T13:39:43.034Z,1.20
2023-05-01T13:42:13.353Z,1.30
2023-05-01T13:44:47.686Z,1.58
2023-05-01T13:47:18.210Z,1.58
2023-05-01T13:49:48.734Z,1.90
2023-05-01T13:52:18.332Z,1.88
2023-05-01T13:54:46.969Z,1.77
2023-05-01T13:57:15.674Z,1.95
2023-05-01T13:59:46.167Z,1.85
2023-05-01T14:02:21.833Z,2.47
2023-05-01T14:04:50.261Z,2.88
2023-05-01T14:07:20.344Z,2.28
2023-05-01T14:09:54.012Z,1.92
2023-05-01T14:12:25.630Z,1.90
2023-05-01T14:14:55.135Z,1.30
2023-05-01T14:17:28.908Z,1.70
2023-05-01T14:19:56.939Z,1.77
2023-05-01T14:22:24.931Z,2.20
2023-05-01T14:24:52.817Z,2.28
2023-05-01T14:27:21.764Z,3.03
2023-05-01T14:29:50.422Z,3.30
2023-05-01T14:32:19.805Z,3.55
2023-05-01T14:34:47.718Z,3.58
2023-05-01T14:37:16.160Z,3.65
2023-05-01T14:39:44.112Z,2.70
2023-05-01T14:42:12.012Z,2.42
2023-05-01T14:44:43.335Z,2.10
2023-05-01T14:47:11.346Z,2.20
2023-05-01T14:49:42.714Z,2.30
2023-05-01T14:52:12.329Z,2.08
2023-05-01T14:54:47.397Z,2.00
2023-05-01T14:57:16.114Z,2.13
2023-05-01T14:59:44.042Z,1.83
2023-05-01T15:02:12.024Z,1.92
2023-05-01T15:04:44.764Z,2.10
2023-05-01T15:07:12.834Z,1.95
2023-05-01T15:09:42.919Z,2.20
2023-05-01T15:12:11.358Z,2.15
2023-05-01T15:14:39.278Z,2.45
2023-05-01T15:17:07.289Z,1.90
2023-05-01T15:19:35.187Z,2.00
2023-05-01T15:22:04.853Z,2.53
2023-05-01T15:24:32.783Z,1.73
2023-05-01T15:27:00.976Z,1.88
2023-05-01T15:29:28.857Z,2.10
2023-05-01T15:32:08.169Z,1.75
2023-05-01T15:34:39.892Z,1.90
2023-05-01T15:37:09.533Z,1.85
2023-05-01T15:39:38.732Z,1.90
2023-05-01T15:42:06.640Z,1.73
2023-05-01T15:44:34.591Z,1.80
2023-05-01T15:47:02.528Z,1.90
2023-05-01T15:49:30.582Z,2.13
2023-05-01T15:51:58.549Z,2.10
2023-05-01T15:54:28.126Z,2.13
2023-05-01T15:56:56.046Z,1.85
2023-05-01T15:59:23.984Z,2.03
2023-05-01T16:01:54.105Z,1.52
2023-05-01T16:04:22.462Z,1.63
2023-05-01T16:06:50.561Z,1.77
2023-05-01T16:09:19.034Z,1.90
2023-05-01T16:11:48.375Z,1.50
2023-05-01T16:14:17.040Z,2.03
2023-05-01T16:16:45.028Z,1.60
2023-05-01T16:19:17.218Z,1.83
2023-05-01T16:21:45.910Z,2.38
2023-05-01T16:24:14.834Z,2.03
2023-05-01T16:26:42.831Z,2.47
2023-05-01T16:29:12.240Z,2.10
2023-05-01T16:31:41.966Z,2.10
2023-05-01T16:34:13.327Z,2.00
2023-05-01T16:36:43.468Z,2.30
2023-05-01T16:39:13.790Z,2.28
2023-05-01T16:41:45.568Z,2.35
2023-05-01T16:44:16.196Z,2.17
2023-05-01T16:46:44.808Z,2.67
2023-05-01T16:49:13.721Z,2.50
2023-05-01T16:51:42.656Z,3.17
2023-05-01T16:54:10.828Z,3.70
2023-05-01T16:56:39.181Z,5.47
2023-05-01T16:59:07.216Z,7.60
2023-05-01T17:01:36.596Z,31.55
2023-05-01T17:04:04.668Z,3.92
2023-05-01T17:06:32.797Z,2.92
2023-05-01T17:09:00.773Z,1.98
2023-05-01T17:11:30.403Z,2.73
2023-05-01T17:13:59.870Z,2.47
2023-05-01T17:16:28.477Z,3.55
2023-05-01T17:18:57.773Z,2.78
2023-05-01T17:21:25.828Z,2.00
2023-05-01T17:23:54.699Z,2.70
2023-05-01T17:26:22.927Z,3.00
2023-05-01T17:28:50.975Z,2.80
2023-05-01T17:31:20.528Z,2.40
2023-05-01T17:33:50.390Z,2.28
2023-05-01T17:36:21.253Z,2.70
2023-05-01T17:38:50.283Z,3.60
2023-05-01T17:41:18.463Z,3.20
2023-05-01T17:43:46.603Z,2.47
2023-05-01T17:46:16.724Z,2.72
2023-05-01T17:48:44.648Z,2.72
2023-05-01T17:51:14.083Z,2.53
2023-05-01T17:53:43.527Z,2.58
2023-05-01T17:56:11.455Z,2.47
2023-05-01T17:58:40.742Z,2.35
2023-05-01T18:01:08.823Z,2.40
2023-05-01T18:03:36.809Z,2.20
2023-05-01T18:06:05.169Z,2.85
2023-05-01T18:08:33.358Z,2.15
2023-05-01T18:11:03.786Z,2.85
2023-05-01T18:13:38.034Z,2.63
2023-05-01T18:16:06.274Z,2.67
2023-05-01T18:18:34.233Z,2.85
2023-05-01T18:21:02.178Z,2.85
2023-05-01T18:23:30.104Z,2.80
2023-05-01T18:25:58.575Z,2.30
2023-05-01T18:28:27.882Z,2.60
2023-05-01T18:30:55.907Z,2.63
2023-05-01T18:33:23.870Z,2.35
2023-05-01T18:35:51.876Z,2.53
2023-05-01T18:38:20.280Z,2.55
2023-05-01T18:40:48.816Z,2.47
2023-05-01T18:43:16.724Z,2.55
2023-05-01T18:45:46.052Z,3.05
2023-05-01T18:48:14.013Z,2.60
2023-05-01T18:50:42.521Z,2.47
2023-05-01T18:53:10.414Z,2.60
2023-05-01T18:55:38.298Z,2.45
2023-05-01T18:58:06.338Z,3.70
2023-05-01T19:00:34.360Z,2.00
2023-05-01T19:03:03.776Z,2.10
2023-05-01T19:05:32.058Z,2.15
2023-05-01T19:08:05.073Z,2.20
2023-05-01T19:10:33.321Z,2.45
2023-05-01T19:13:01.983Z,2.13
2023-05-01T19:15:29.848Z,1.92
2023-05-01T19:17:57.830Z,2.20
2023-05-01T19:20:27.230Z,2.30
2023-05-01T19:22:55.312Z,2.55
2023-05-01T19:25:23.307Z,2.20
2023-05-01T19:27:51.749Z,2.30
2023-05-01T19:30:19.694Z,2.35
2023-05-01T19:32:47.732Z,2.28
2023-05-01T19:35:16.278Z,2.50
2023-05-01T19:37:45.717Z,2.28
2023-05-01T19:40:13.897Z,2.53
2023-05-01T19:42:41.838Z,2.28
2023-05-01T19:45:10.589Z,2.45
2023-05-01T19:47:38.703Z,2.58
2023-05-01T19:50:07.996Z,2.58
2023-05-01T19:52:35.968Z,2.72
2023-05-01T19:55:06.377Z,2.33
2023-05-01T19:57:34.918Z,2.67
2023-05-01T20:00:03.175Z,3.00
2023-05-01T20:02:38.109Z,3.00
2023-05-01T20:05:06.762Z,2.78
2023-05-01T20:07:35.007Z,2.95
2023-05-01T20:10:03.014Z,2.92
2023-05-01T20:12:33.323Z,3.05
2023-05-01T20:15:01.588Z,2.80
2023-05-01T20:17:29.709Z,2.88
2023-05-01T20:19:58.027Z,2.90
2023-05-01T20:22:26.232Z,2.75
2023-05-01T20:24:54.084Z,3.05
2023-05-01T20:27:22.048Z,2.85
2023-05-01T20:29:51.373Z,2.97
2023-05-01T20:32:19.277Z,2.90
2023-05-01T20:34:48.000Z,2.63
2023-05-01T20:37:16.508Z,3.13
2023-05-01T20:39:44.412Z,2.50
2023-05-01T20:42:12.320Z,3.63
2023-05-01T20:44:40.654Z,3.53
2023-05-01T20:47:10.280Z,4.20
2023-05-01T20:49:38.282Z,4.43
2023-05-01T20:52:06.777Z,4.13
2023-05-01T20:54:34.752Z,3.58
2023-05-01T20:57:02.965Z,3.15
2023-05-01T20:59:31.010Z,3.90
2023-05-01T21:01:58.990Z,4.10
2023-05-01T21:04:28.344Z,3.65
2023-05-01T21:06:58.229Z,3.53
2023-05-01T21:09:26.227Z,3.17
2023-05-01T21:11:54.129Z,3.10
2023-05-01T21:14:22.123Z,3.17
2023-05-01T21:16:50.002Z,3.53
2023-05-01T21:19:17.926Z,3.67
2023-05-01T21:21:47.292Z,3.25
2023-05-01T21:24:21.512Z,3.72
2023-05-01T21:26:49.765Z,3.30
2023-05-01T21:29:17.696Z,2.80
2023-05-01T21:31:45.673Z,3.42
2023-05-01T21:34:13.989Z,3.75
2023-05-01T21:36:45.043Z,3.47
2023-05-01T21:39:14.514Z,2.90
2023-05-01T21:41:42.967Z,3.75
2023-05-01T21:44:11.116Z,2.85
2023-05-01T21:46:39.741Z,3.45
2023-05-01T21:49:07.850Z,4.13
2023-05-01T21:51:35.883Z,3.30
2023-05-01T21:54:05.633Z,3.33
2023-05-01T21:56:34.921Z,3.50
2023-05-01T21:59:06.141Z,3.40
2023-05-01T22:01:34.286Z,3.53
2023-05-01T22:04:02.589Z,2.88
2023-05-01T22:06:30.589Z,2.58
2023-05-01T22:08:58.525Z,3.03
2023-05-01T22:11:26.620Z,2.40
2023-05-01T22:13:56.717Z,2.40
2023-05-01T22:16:24.815Z,2.45
2023-05-01T22:18:53.281Z,2.60
2023-05-01T22:21:21.187Z,2.40
2023-05-01T22:23:49.600Z,2.55
2023-05-01T22:26:17.497Z,2.10
2023-05-01T22:28:45.547Z,1.80
2023-05-01T22:31:14.819Z,1.60
2023-05-01T22:33:42.724Z,2.30
2023-05-01T22:36:10.733Z,1.60
2023-05-01T22:38:38.619Z,1.98
2023-05-01T22:41:06.879Z,2.05
2023-05-01T22:43:34.795Z,1.40
2023-05-01T22:46:02.749Z,1.85
2023-05-01T22:48:32.222Z,2.00
2023-05-01T22:51:00.155Z,2.00
2023-05-01T22:53:29.202Z,2.35
2023-05-01T22:55:57.253Z,1.98
2023-05-01T22:58:25.171Z,1.70
2023-05-01T23:00:53.163Z,1.50
2023-05-01T23:03:21.192Z,1.98
2023-05-01T23:05:50.831Z,1.75
2023-05-01T23:08:18.734Z,1.55
2023-05-01T23:10:46.610Z,1.75
2023-05-01T23:13:19.091Z,1.85
2023-05-01T23:15:50.000Z,1.70
2023-05-01T23:18:23.654Z,1.75
2023-05-01T23:20:53.705Z,1.50
2023-05-01T23:23:22.271Z,1.98
2023-05-01T23:25:51.123Z,1.70
2023-05-01T23:28:23.826Z,1.73
2023-05-01T23:30:55.657Z,1.70
2023-05-01T23:33:25.212Z,1.52
2023-05-01T23:35:54.525Z,1.50
2023-05-01T23:38:22.446Z,1.48
2023-05-01T23:40:51.216Z,1.73
2023-05-01T23:43:20.094Z,1.85
2023-05-01T23:45:48.264Z,1.80
2023-05-01T23:48:16.385Z,1.67
2023-05-01T23:50:44.334Z,1.80
2023-05-01T23:53:13.825Z,1.80
2023-05-01T23:55:43.599Z,2.03
2023-05-01T23:58:13.185Z,1.55
